Time;durP1;ratioP1;P1;durP2;ratioP2;P2;SDS_P1;SDS_P2;PMS_P1;PMS_P2;Temp;Humidity;BMP_temperature;BMP_pressure;BME280_temperature;BME280_humidity;BME280_pressure;Samples;Min_cycle;Max_cycle;Signal;HPM_P1;HPM_P2
2024/02/13 00:00:10;;;;;;;3.78;2.63;;;;;;;;;;5014087;28;20038;-78
2024/02/13 00:02:38;;;;;;;3.13;1.83;;;;;;;;;;5025731;28;20053;-79
2024/02/13 00:05:07;;;;;;;3.13;2.25;;;;;;;;;;5022749;28;20529;-78
2024/02/13 00:07:38;;;;;;;3.65;2.30;;;;;;;;;;5023480;28;20483;-78
2024/02/13 00:10:07;;;;;;;7.57;2.58;;;;;;;;;;5021836;28;20029;-78
2024/02/13 00:12:33;;;;;;;4.07;2.92;;;;;;;;;;5005680;28;20041;-78
2024/02/13 00:14:58;;;;;;;4.50;3.10;;;;;;;;;;5009681;28;20042;-78
2024/02/13 00:17:24;;;;;;;4.40;2.63;;;;;;;;;;5012119;28;20049;-79
2024/02/13 00:19:53;;;;;;;3.90;2.50;;;;;;;;;;5015927;28;20025;-78
2024/02/13 00:22:19;;;;;;;5.78;3.00;;;;;;;;;;5018932;28;20080;-78
2024/02/13 00:24:45;;;;;;;1.45;1.10;;;;;;;;;;5024204;28;20037;-78
2024/02/13 00:27:10;;;;;;;3.50;2.70;;;;;;;;;;5031862;28;20056;-78
2024/02/13 00:29:35;;;;;;;5.80;2.90;;;;;;;;;;5017199;28;20037;-78
2024/02/13 00:32:01;;;;;;;10.65;2.70;;;;;;;;;;5020764;28;20043;-78
2024/02/13 00:34:26;;;;;;;3.63;2.53;;;;;;;;;;5022586;28;20110;-77
2024/02/13 00:36:52;;;;;;;3.70;2.78;;;;;;;;;;5024111;28;20048;-77
2024/02/13 00:39:18;;;;;;;5.75;2.78;;;;;;;;;;5024705;28;20032;-78
2024/02/13 00:41:43;;;;;;;5.25;3.05;;;;;;;;;;5035741;28;20040;-78
2024/02/13 00:44:09;;;;;;;3.00;2.30;;;;;;;;;;5022601;28;20588;-78
2024/02/13 00:46:35;;;;;;;6.32;2.78;;;;;;;;;;5013910;28;20057;-78
2024/02/13 00:49:02;;;;;;;4.07;2.58;;;;;;;;;;5022036;28;20069;-78
2024/02/13 00:51:28;;;;;;;2.13;1.63;;;;;;;;;;5017208;28;20025;-78
2024/02/13 00:53:53;;;;;;;4.35;3.05;;;;;;;;;;5008212;28;20014;-78
2024/02/13 00:56:18;;;;;;;3.53;2.75;;;;;;;;;;5010672;28;20071;-79
2024/02/13 00:58:46;;;;;;;2.95;2.15;;;;;;;;;;5015313;28;20026;-78
2024/02/13 01:01:12;;;;;;;6.18;2.83;;;;;;;;;;5017529;28;20060;-78
2024/02/13 01:03:38;;;;;;;4.15;2.85;;;;;;;;;;5025027;28;20883;-78
2024/02/13 01:06:05;;;;;;;4.07;3.58;;;;;;;;;;5027559;28;20045;-79
2024/02/13 01:08:33;;;;;;;5.53;3.40;;;;;;;;;;5023939;28;20022;-78
2024/02/13 01:10:58;;;;;;;6.82;3.72;;;;;;;;;;5024756;28;20014;-78
2024/02/13 01:13:24;;;;;;;6.40;2.63;;;;;;;;;;5023397;28;20029;-78
2024/02/13 01:15:49;;;;;;;6.13;3.58;;;;;;;;;;5013201;28;20036;-79
2024/02/13 01:18:14;;;;;;;6.82;2.22;;;;;;;;;;5010239;28;20083;-78
2024/02/13 01:20:40;;;;;;;7.25;4.15;;;;;;;;;;5018307;28;20042;-78
2024/02/13 01:23:06;;;;;;;6.75;3.42;;;;;;;;;;5017994;28;20032;-78
2024/02/13 01:25:31;;;;;;;4.00;2.50;;;;;;;;;;5020837;28;20059;-78
2024/02/13 01:27:57;;;;;;;5.68;2.85;;;;;;;;;;5023684;28;20056;-79
2024/02/13 01:30:23;;;;;;;5.93;3.08;;;;;;;;;;5020220;28;20479;-78
2024/02/13 01:32:49;;;;;;;7.55;3.03;;;;;;;;;;5012657;28;20076;-78
2024/02/13 01:35:16;;;;;;;5.85;3.25;;;;;;;;;;5020287;28;20014;-78
2024/02/13 01:37:43;;;;;;;7.95;3.85;;;;;;;;;;5019818;28;20487;-77
2024/02/13 01:40:10;;;;;;;8.27;3.28;;;;;;;;;;5022869;28;20071;-79
2024/02/13 01:42:38;;;;;;;7.63;3.05;;;;;;;;;;5023980;28;20085;-79
2024/02/13 01:45:07;;;;;;;5.03;3.65;;;;;;;;;;5018228;28;20113;-80
2024/02/13 01:47:36;;;;;;;4.38;3.28;;;;;;;;;;5014768;28;20042;-78
2024/02/13 01:50:05;;;;;;;6.47;3.67;;;;;;;;;;5018619;28;20021;-80
2024/02/13 01:52:32;;;;;;;5.55;3.50;;;;;;;;;;5016988;28;20030;-78
2024/02/13 01:55:00;;;;;;;8.65;4.00;;;;;;;;;;5017049;28;20018;-78
2024/02/13 01:57:29;;;;;;;4.25;2.95;;;;;;;;;;5025089;28;20026;-77
2024/02/13 01:59:55;;;;;;;6.93;4.00;;;;;;;;;;5018013;28;20044;-78
2024/02/13 02:02:20;;;;;;;10.00;4.13;;;;;;;;;;5015053;28;20033;-78
2024/02/13 02:04:48;;;;;;;4.95;2.92;;;;;;;;;;5021925;28;20026;-79
2024/02/13 02:07:14;;;;;;;4.32;2.90;;;;;;;;;;5022130;28;20048;-79
2024/02/13 02:09:42;;;;;;;8.55;3.92;;;;;;;;;;5024055;28;20507;-79
2024/02/13 02:12:09;;;;;;;4.97;2.22;;;;;;;;;;5018801;28;20062;-78
2024/02/13 02:14:35;;;;;;;6.93;3.65;;;;;;;;;;5017497;28;20032;-78
2024/02/13 02:17:10;;;;;;;4.57;3.05;;;;;;;;;;5019351;28;20085;-78
2024/02/13 02:19:36;;;;;;;5.43;3.17;;;;;;;;;;5033053;28;20487;-79
2024/02/13 02:22:03;;;;;;;7.80;3.72;;;;;;;;;;5019857;28;20022;-79
2024/02/13 02:24:30;;;;;;;8.10;3.78;;;;;;;;;;5019989;28;20395;-79
2024/02/13 02:26:56;;;;;;;9.15;4.20;;;;;;;;;;5017457;28;20411;-79
2024/02/13 02:29:23;;;;;;;7.97;3.53;;;;;;;;;;5031598;28;20017;-79
2024/02/13 02:31:49;;;;;;;6.43;3.75;;;;;;;;;;5024508;28;20036;-78
2024/02/13 02:34:18;;;;;;;5.43;2.35;;;;;;;;;;5028175;28;20014;-79
2024/02/13 02:36:50;;;;;;;8.82;3.80;;;;;;;;;;5015797;28;20033;-79
2024/02/13 02:39:19;;;;;;;8.30;3.55;;;;;;;;;;5016821;28;20044;-79
2024/02/13 02:41:46;;;;;;;4.63;3.15;;;;;;;;;;5023100;28;20505;-78
2024/02/13 02:44:11;;;;;;;9.23;3.85;;;;;;;;;;5019437;28;20434;-78
2024/02/13 02:46:37;;;;;;;2.67;2.28;;;;;;;;;;5016408;28;20045;-78
2024/02/13 02:49:04;;;;;;;8.80;4.22;;;;;;;;;;5020139;28;20029;-79
2024/02/13 02:51:32;;;;;;;5.93;3.53;;;;;;;;;;5017904;28;20033;-78
2024/02/13 02:53:58;;;;;;;8.48;4.22;;;;;;;;;;5018626;28;20097;-79
2024/02/13 02:56:23;;;;;;;6.40;3.78;;;;;;;;;;5017400;28;20049;-77
2024/02/13 02:58:49;;;;;;;7.85;3.67;;;;;;;;;;5017341;28;20553;-78
2024/02/13 03:01:15;;;;;;;7.75;4.38;;;;;;;;;;5015520;28;20036;-78
2024/02/13 03:03:41;;;;;;;4.15;3.28;;;;;;;;;;5028489;28;20033;-78
2024/02/13 03:06:07;;;;;;;4.95;3.80;;;;;;;;;;5016516;28;20020;-79
2024/02/13 03:08:33;;;;;;;5.35;2.78;;;;;;;;;;5021324;28;20116;-79
2024/02/13 03:10:59;;;;;;;8.68;3.92;;;;;;;;;;5015549;28;20026;-79
2024/02/13 03:13:24;;;;;;;2.33;1.85;;;;;;;;;;5021139;28;20033;-79
2024/02/13 03:15:50;;;;;;;10.27;4.65;;;;;;;;;;5014050;28;20076;-78
2024/02/13 03:18:17;;;;;;;7.72;4.45;;;;;;;;;;5023167;28;20474;-79
2024/02/13 03:20:43;;;;;;;11.68;4.32;;;;;;;;;;5017752;28;20030;-78
2024/02/13 03:23:09;;;;;;;4.47;2.13;;;;;;;;;;5014207;28;20044;-79
2024/02/13 03:25:34;;;;;;;7.47;4.18;;;;;;;;;;5025803;28;20030;-78
2024/02/13 03:28:00;;;;;;;6.53;4.18;;;;;;;;;;5024233;28;20685;-78
2024/02/13 03:30:25;;;;;;;8.38;4.63;;;;;;;;;;5018162;28;20196;-80
2024/02/13 03:32:50;;;;;;;8.27;4.22;;;;;;;;;;5018199;28;20085;-79
2024/02/13 03:35:16;;;;;;;3.05;2.10;;;;;;;;;;5020552;28;20021;-78
2024/02/13 03:37:41;;;;;;;9.63;4.30;;;;;;;;;;5017560;28;20040;-78
2024/02/13 03:40:08;;;;;;;4.32;2.45;;;;;;;;;;5019472;28;20025;-79
2024/02/13 03:42:36;;;;;;;13.07;4.28;;;;;;;;;;5018537;28;20030;-78
2024/02/13 03:45:02;;;;;;;6.85;3.65;;;;;;;;;;5016194;28;20026;-79
2024/02/13 03:47:27;;;;;;;10.15;5.05;;;;;;;;;;5020817;28;20055;-79
2024/02/13 03:49:53;;;;;;;11.15;5.35;;;;;;;;;;5014826;28;20056;-79
2024/02/13 03:52:18;;;;;;;8.25;4.10;;;;;;;;;;5018844;28;20021;-78
2024/02/13 03:54:44;;;;;;;11.90;4.90;;;;;;;;;;5027861;28;20026;-78
2024/02/13 03:57:11;;;;;;;7.00;4.20;;;;;;;;;;5018402;28;20026;-79
2024/02/13 03:59:36;;;;;;;12.93;5.03;;;;;;;;;;5019302;28;20030;-78
2024/02/13 04:02:02;;;;;;;9.95;5.47;;;;;;;;;;5013676;28;20038;-78
2024/02/13 04:04:27;;;;;;;5.32;3.42;;;;;;;;;;5015942;28;20034;-77
2024/02/13 04:06:53;;;;;;;10.57;5.25;;;;;;;;;;5010116;28;20044;-77
2024/02/13 04:09:18;;;;;;;15.55;5.03;;;;;;;;;;5031102;28;20071;-78
2024/02/13 04:11:45;;;;;;;10.82;6.03;;;;;;;;;;5016094;28;20033;-78
2024/02/13 04:14:11;;;;;;;7.53;4.07;;;;;;;;;;5013167;28;20014;-77
2024/02/13 04:16:41;;;;;;;7.22;4.07;;;;;;;;;;5013677;28;20121;-78
2024/02/13 04:19:07;;;;;;;3.90;2.50;;;;;;;;;;5015130;28;20026;-79
2024/02/13 04:21:33;;;;;;;9.82;4.30;;;;;;;;;;5022972;28;20034;-78
2024/02/13 04:23:59;;;;;;;5.60;3.67;;;;;;;;;;5016351;28;20030;-79
2024/02/13 04:26:24;;;;;;;15.15;5.75;;;;;;;;;;5016514;28;20018;-78
2024/02/13 04:28:50;;;;;;;5.63;2.78;;;;;;;;;;5010805;28;20389;-79
2024/02/13 04:31:16;;;;;;;7.68;4.55;;;;;;;;;;5015498;28;20026;-78
2024/02/13 04:33:41;;;;;;;2.55;1.55;;;;;;;;;;5025293;28;20521;-78
2024/02/13 04:36:07;;;;;;;9.00;4.65;;;;;;;;;;5013690;28;20051;-78
2024/02/13 04:38:32;;;;;;;11.70;5.38;;;;;;;;;;5008368;28;20052;-79
2024/02/13 04:40:58;;;;;;;10.60;4.88;;;;;;;;;;5015934;28;20026;-78
2024/02/13 04:43:24;;;;;;;7.72;3.85;;;;;;;;;;5022972;28;20490;-79
2024/02/13 04:45:49;;;;;;;6.97;3.33;;;;;;;;;;5016529;28;20101;-77
2024/02/13 04:48:15;;;;;;;7.55;4.18;;;;;;;;;;5015744;28;20022;-78
2024/02/13 04:50:40;;;;;;;9.85;4.68;;;;;;;;;;5009695;28;20038;-78
2024/02/13 04:53:05;;;;;;;8.73;5.25;;;;;;;;;;5022667;28;20036;-78
2024/02/13 04:55:32;;;;;;;4.50;2.58;;;;;;;;;;5019383;28;20399;-78
2024/02/13 04:57:58;;;;;;;7.50;4.85;;;;;;;;;;5013340;28;20029;-78
2024/02/13 05:00:28;;;;;;;13.48;5.43;;;;;;;;;;5018574;28;20114;-78
2024/02/13 05:03:02;;;;;;;10.05;4.88;;;;;;;;;;5015861;28;20049;-78
2024/02/13 05:08:12;;;;;;;9.77;5.15;;;;;;;;;;5015650;28;20086;-79
2024/02/13 05:10:37;;;;;;;9.60;5.63;;;;;;;;;;5016967;28;20066;-79
2024/02/13 05:13:04;;;;;;;8.32;4.70;;;;;;;;;;5013564;28;20569;-78
2024/02/13 05:15:29;;;;;;;2.15;1.95;;;;;;;;;;5027347;28;20030;-78
2024/02/13 05:17:56;;;;;;;7.10;3.85;;;;;;;;;;5008930;28;20029;-78
2024/02/13 05:20:23;;;;;;;9.10;5.03;;;;;;;;;;5011053;28;20025;-79
2024/02/13 05:22:49;;;;;;;8.30;4.40;;;;;;;;;;5008481;28;20030;-79
2024/02/13 05:25:14;;;;;;;10.25;4.35;;;;;;;;;;5013183;28;20494;-78
2024/02/13 05:27:40;;;;;;;7.70;4.57;;;;;;;;;;5009295;28;20487;-78
2024/02/13 05:30:06;;;;;;;1.70;1.40;;;;;;;;;;5010112;28;20586;-78
2024/02/13 05:32:31;;;;;;;4.63;2.75;;;;;;;;;;5007441;28;20565;-77
2024/02/13 05:34:56;;;;;;;11.15;6.18;;;;;;;;;;5006419;28;20048;-77
2024/02/13 05:37:22;;;;;;;8.55;4.95;;;;;;;;;;5033776;28;20043;-77
2024/02/13 05:39:50;;;;;;;5.55;3.20;;;;;;;;;;5026255;28;20104;-77
2024/02/13 05:42:18;;;;;;;10.38;5.80;;;;;;;;;;5015258;28;20084;-77
2024/02/13 05:44:44;;;;;;;10.52;5.07;;;;;;;;;;5016589;28;20050;-78
2024/02/13 05:47:10;;;;;;;2.90;2.03;;;;;;;;;;5027928;28;20076;-77
2024/02/13 05:49:36;;;;;;;9.95;3.58;;;;;;;;;;5040551;28;20048;-78
2024/02/13 05:52:01;;;;;;;6.45;4.13;;;;;;;;;;4987454;28;20037;-77
2024/02/13 05:54:27;;;;;;;3.97;2.28;;;;;;;;;;5000528;28;20037;-77
2024/02/13 05:56:52;;;;;;;2.33;1.42;;;;;;;;;;5023869;28;20386;-78
2024/02/13 05:59:23;;;;;;;5.05;2.60;;;;;;;;;;5007955;28;20084;-78
2024/02/13 06:01:49;;;;;;;;;;;;;;;;;;5004975;28;20050;-77
2024/02/13 06:04:15;;;;;;;6.40;3.13;;;;;;;;;;5007963;28;19963;-78
2024/02/13 06:06:43;;;;;;;4.63;2.60;;;;;;;;;;5008622;28;20018;-78
2024/02/13 06:09:09;;;;;;;2.03;1.30;;;;;;;;;;5007060;28;20033;-78
2024/02/13 06:11:36;;;;;;;3.63;1.92;;;;;;;;;;5004783;28;20388;-78
2024/02/13 06:14:02;;;;;;;5.25;2.60;;;;;;;;;;5000443;28;20102;-77
2024/02/13 06:16:27;;;;;;;7.38;3.47;;;;;;;;;;5007410;28;20097;-78
2024/02/13 06:18:53;;;;;;;13.93;6.40;;;;;;;;;;5007629;28;20032;-78
2024/02/13 06:21:19;;;;;;;9.40;4.57;;;;;;;;;;4997353;28;20064;-78
2024/02/13 06:23:47;;;;;;;6.50;3.88;;;;;;;;;;4992397;28;20030;-78
2024/02/13 06:26:13;;;;;;;7.05;4.25;;;;;;;;;;5004635;28;20018;-79
2024/02/13 06:28:38;;;;;;;8.60;3.88;;;;;;;;;;5007219;28;20026;-78
2024/02/13 06:31:04;;;;;;;3.45;2.30;;;;;;;;;;4999376;28;20029;-78
2024/02/13 06:33:30;;;;;;;9.13;3.42;;;;;;;;;;5011514;28;20399;-78
2024/02/13 06:35:56;;;;;;;7.22;3.58;;;;;;;;;;5010259;28;20121;-78
2024/02/13 06:38:24;;;;;;;6.30;3.58;;;;;;;;;;5009411;28;20034;-78
2024/02/13 06:40:50;;;;;;;13.15;9.02;;;;;;;;;;5005154;28;20030;-78
2024/02/13 06:43:17;;;;;;;22.35;12.55;;;;;;;;;;5018744;28;20025;-78
2024/02/13 06:45:42;;;;;;;28.88;16.63;;;;;;;;;;5011693;28;20042;-78
2024/02/13 06:48:08;;;;;;;28.90;15.82;;;;;;;;;;5005046;28;20022;-78
2024/02/13 06:50:33;;;;;;;12.40;6.97;;;;;;;;;;5001431;28;20038;-78
2024/02/13 06:52:59;;;;;;;14.90;8.60;;;;;;;;;;5011447;28;20029;-77
2024/02/13 06:55:24;;;;;;;10.18;5.43;;;;;;;;;;5021572;28;20025;-78
2024/02/13 06:57:50;;;;;;;6.53;3.58;;;;;;;;;;5006998;28;20587;-78
2024/02/13 07:00:16;;;;;;;9.82;4.68;;;;;;;;;;5006940;28;20033;-78
2024/02/13 07:02:42;;;;;;;9.18;4.65;;;;;;;;;;5002176;28;20033;-77
2024/02/13 07:05:09;;;;;;;9.05;4.07;;;;;;;;;;5022146;28;20486;-78
2024/02/13 07:07:34;;;;;;;8.70;4.07;;;;;;;;;;5011954;28;20109;-78
2024/02/13 07:10:00;;;;;;;9.60;5.72;;;;;;;;;;5014273;28;20444;-78
2024/02/13 07:12:26;;;;;;;13.60;7.78;;;;;;;;;;5011519;28;20093;-78
2024/02/13 07:14:51;;;;;;;10.68;5.03;;;;;;;;;;5000683;28;20540;-78
2024/02/13 07:17:17;;;;;;;9.45;5.20;;;;;;;;;;5006301;28;20049;-78
2024/02/13 07:19:42;;;;;;;7.75;4.57;;;;;;;;;;4998905;28;20112;-78
2024/02/13 07:22:08;;;;;;;9.27;5.40;;;;;;;;;;5004608;28;20045;-78
2024/02/13 07:24:38;;;;;;;9.75;4.50;;;;;;;;;;5003042;28;20093;-78
2024/02/13 07:27:04;;;;;;;11.15;5.43;;;;;;;;;;5005181;28;20088;-79
2024/02/13 07:29:30;;;;;;;10.05;6.18;;;;;;;;;;5007255;28;20510;-78
2024/02/13 07:31:56;;;;;;;13.88;5.53;;;;;;;;;;5005344;28;20034;-78
2024/02/13 07:34:22;;;;;;;13.77;6.60;;;;;;;;;;5006217;28;20072;-79
2024/02/13 07:36:47;;;;;;;11.10;6.30;;;;;;;;;;5008227;28;20026;-78
2024/02/13 07:39:13;;;;;;;11.73;6.50;;;;;;;;;;5021282;28;20022;-78
2024/02/13 07:41:39;;;;;;;13.90;6.97;;;;;;;;;;5005620;28;20032;-78
2024/02/13 07:44:05;;;;;;;11.80;5.85;;;;;;;;;;5005347;28;20550;-78
2024/02/13 07:46:30;;;;;;;10.75;5.63;;;;;;;;;;5000621;28;20038;-78
2024/02/13 07:48:56;;;;;;;12.10;6.05;;;;;;;;;;4995894;28;20680;-79
2024/02/13 07:51:22;;;;;;;13.27;6.35;;;;;;;;;;5004863;28;20038;-78
2024/02/13 07:53:47;;;;;;;11.27;6.15;;;;;;;;;;4992924;28;20034;-79
2024/02/13 07:56:13;;;;;;;12.73;5.80;;;;;;;;;;4998233;28;20030;-78
2024/02/13 07:58:39;;;;;;;9.63;5.10;;;;;;;;;;5001877;28;20119;-79
2024/02/13 08:01:05;;;;;;;16.52;6.65;;;;;;;;;;5003817;28;20481;-79
2024/02/13 08:03:34;;;;;;;13.30;6.10;;;;;;;;;;5004565;28;20663;-78
2024/02/13 08:06:01;;;;;;;10.40;4.97;;;;;;;;;;5005773;28;20029;-78
2024/02/13 08:08:27;;;;;;;10.88;5.28;;;;;;;;;;5001492;28;20033;-78
2024/02/13 08:10:53;;;;;;;15.55;7.10;;;;;;;;;;5000877;28;20041;-78
2024/02/13 08:13:19;;;;;;;9.45;6.00;;;;;;;;;;5007327;28;20049;-78
2024/02/13 08:15:47;;;;;;;12.30;6.85;;;;;;;;;;5006523;28;20056;-78
2024/02/13 08:18:14;;;;;;;12.70;6.32;;;;;;;;;;5006471;28;20029;-79
2024/02/13 08:20:42;;;;;;;10.20;6.60;;;;;;;;;;5003352;28;20048;-79
2024/02/13 08:23:07;;;;;;;10.57;6.15;;;;;;;;;;5004818;28;20033;-78
2024/02/13 08:25:33;;;;;;;12.32;6.20;;;;;;;;;;5002787;28;20523;-78
2024/02/13 08:27:59;;;;;;;8.50;5.30;;;;;;;;;;5010175;28;20033;-78
2024/02/13 08:30:26;;;;;;;10.30;6.15;;;;;;;;;;5006222;28;20022;-79
2024/02/13 08:32:51;;;;;;;11.40;6.40;;;;;;;;;;5005390;28;20028;-78
2024/02/13 08:35:18;;;;;;;12.50;6.95;;;;;;;;;;5012073;28;20034;-78
2024/02/13 08:37:44;;;;;;;15.00;5.95;;;;;;;;;;5013313;28;20049;-78
2024/02/13 08:40:13;;;;;;;11.45;6.18;;;;;;;;;;5009863;28;20026;-78
2024/02/13 08:42:38;;;;;;;14.05;6.90;;;;;;;;;;5006571;28;20029;-78
2024/02/13 08:45:04;;;;;;;14.98;6.57;;;;;;;;;;5007720;28;20018;-79
2024/02/13 08:47:30;;;;;;;10.48;6.03;;;;;;;;;;5009060;28;20561;-78
2024/02/13 08:49:56;;;;;;;11.15;6.25;;;;;;;;;;5010529;28;20034;-78
2024/02/13 08:52:21;;;;;;;9.27;5.90;;;;;;;;;;5005017;28;20021;-79
2024/02/13 08:54:47;;;;;;;10.43;5.53;;;;;;;;;;5001175;28;20464;-79
2024/02/13 08:57:14;;;;;;;8.25;5.85;;;;;;;;;;5009923;28;20116;-78
2024/02/13 08:59:40;;;;;;;10.35;5.45;;;;;;;;;;5006145;28;20696;-78
2024/02/13 09:02:08;;;;;;;10.25;5.93;;;;;;;;;;5007784;28;20054;-77
2024/02/13 09:04:34;;;;;;;11.32;5.97;;;;;;;;;;5011627;28;20037;-78
2024/02/13 09:07:00;;;;;;;9.25;4.00;;;;;;;;;;5008213;28;20113;-78
2024/02/13 09:09:26;;;;;;;7.75;4.30;;;;;;;;;;5007779;28;20088;-78
2024/02/13 09:11:52;;;;;;;11.95;5.63;;;;;;;;;;5005889;28;20029;-79
2024/02/13 09:14:18;;;;;;;7.18;4.38;;;;;;;;;;5011917;28;20023;-78
2024/02/13 09:16:44;;;;;;;14.07;5.18;;;;;;;;;;5006982;28;20036;-78
2024/02/13 09:19:09;;;;;;;6.63;3.53;;;;;;;;;;5011907;28;20029;-78
2024/02/13 09:21:34;;;;;;;6.35;4.35;;;;;;;;;;5009809;28;20061;-78
2024/02/13 09:24:00;;;;;;;10.80;5.70;;;;;;;;;;5010602;28;20028;-78
2024/02/13 09:26:25;;;;;;;13.15;6.45;;;;;;;;;;5003569;28;20056;-79
2024/02/13 09:28:50;;;;;;;8.00;3.47;;;;;;;;;;5005600;28;20423;-78
2024/02/13 09:31:16;;;;;;;10.45;4.15;;;;;;;;;;5013263;28;20064;-78
2024/02/13 09:33:41;;;;;;;6.63;2.75;;;;;;;;;;5017009;28;20064;-78
2024/02/13 09:36:08;;;;;;;3.17;2.15;;;;;;;;;;5009918;28;20120;-80
2024/02/13 09:38:35;;;;;;;9.70;5.07;;;;;;;;;;4997477;28;20025;-78
2024/02/13 09:41:04;;;;;;;1.73;1.50;;;;;;;;;;5004934;28;20023;-78
2024/02/13 09:43:30;;;;;;;7.97;4.45;;;;;;;;;;5015412;28;20075;-77
2024/02/13 09:45:55;;;;;;;12.25;5.55;;;;;;;;;;5006287;28;20030;-78
2024/02/13 09:48:25;;;;;;;10.95;5.68;;;;;;;;;;5001974;28;20129;-78
2024/02/13 09:50:52;;;;;;;9.13;4.72;;;;;;;;;;5009819;28;20037;-78
2024/02/13 09:53:24;;;;;;;9.77;5.00;;;;;;;;;;5009172;28;20033;-78
2024/02/13 09:55:50;;;;;;;9.60;5.43;;;;;;;;;;5011448;28;20155;-78
2024/02/13 09:58:17;;;;;;;3.53;3.03;;;;;;;;;;5003603;28;20025;-78
2024/02/13 10:00:43;;;;;;;7.88;4.88;;;;;;;;;;5007761;28;20097;-78
2024/02/13 10:03:09;;;;;;;6.00;3.70;;;;;;;;;;5011666;28;20120;-78
2024/02/13 10:05:35;;;;;;;6.55;3.58;;;;;;;;;;5004847;28;20045;-78
2024/02/13 10:08:01;;;;;;;8.45;4.90;;;;;;;;;;5008618;28;20030;-78
2024/02/13 10:10:26;;;;;;;11.63;5.03;;;;;;;;;;5007190;28;20076;-78
2024/02/13 10:12:53;;;;;;;8.43;3.97;;;;;;;;;;5003863;28;20045;-78
2024/02/13 10:15:19;;;;;;;9.93;4.68;;;;;;;;;;5011925;28;20013;-77
2024/02/13 10:17:46;;;;;;;7.22;4.03;;;;;;;;;;4999766;28;20678;-78
2024/02/13 10:20:13;;;;;;;6.85;4.13;;;;;;;;;;5004852;28;20037;-78
2024/02/13 10:22:49;;;;;;;4.28;2.80;;;;;;;;;;5009605;28;20550;-78
2024/02/13 10:25:21;;;;;;;9.88;5.32;;;;;;;;;;5005656;28;20032;-78
2024/02/13 10:27:48;;;;;;;;;;;;;;;;;;5008529;28;20413;-77
2024/02/13 10:30:24;;;;;;;5.28;3.53;;;;;;;;;;5004423;28;19912;-78
2024/02/13 10:32:49;;;;;;;6.78;4.30;;;;;;;;;;5007815;28;20089;-78
2024/02/13 10:35:16;;;;;;;7.43;4.20;;;;;;;;;;5013048;28;20029;-78
2024/02/13 10:37:44;;;;;;;6.75;4.47;;;;;;;;;;5012356;28;20052;-77
2024/02/13 10:40:18;;;;;;;2.35;1.67;;;;;;;;;;4999188;28;20594;-78
2024/02/13 10:42:43;;;;;;;8.52;4.72;;;;;;;;;;5010526;28;20092;-78
2024/02/13 10:45:13;;;;;;;6.10;3.78;;;;;;;;;;5004080;28;20033;-78
2024/02/13 10:47:49;;;;;;;4.68;3.38;;;;;;;;;;5010460;28;20674;-77
2024/02/13 10:50:15;;;;;;;8.57;4.90;;;;;;;;;;5009846;28;20037;-77
2024/02/13 10:52:41;;;;;;;7.28;2.50;;;;;;;;;;5012234;28;20060;-78
2024/02/13 10:55:10;;;;;;;5.32;3.25;;;;;;;;;;5012148;28;20019;-77
2024/02/13 10:57:37;;;;;;;8.05;4.05;;;;;;;;;;5007173;28;20482;-78
2024/02/13 11:00:10;;;;;;;8.88;4.43;;;;;;;;;;5014301;28;20037;-77
2024/02/13 11:02:36;;;;;;;6.97;4.30;;;;;;;;;;5012114;28;20017;-77
2024/02/13 11:05:08;;;;;;;5.07;2.85;;;;;;;;;;5008380;28;20026;-77
2024/02/13 11:07:34;;;;;;;6.90;3.90;;;;;;;;;;5009269;28;20053;-77
2024/02/13 11:10:01;;;;;;;4.85;3.42;;;;;;;;;;5011429;28;20076;-78
2024/02/13 11:12:26;;;;;;;6.70;3.53;;;;;;;;;;5007051;28;20037;-77
2024/02/13 11:14:52;;;;;;;8.60;4.07;;;;;;;;;;5012030;28;20438;-77
2024/02/13 11:17:17;;;;;;;5.60;3.10;;;;;;;;;;4999487;28;20069;-77
2024/02/13 11:19:46;;;;;;;5.75;3.35;;;;;;;;;;5006881;28;20034;-76
2024/02/13 11:22:15;;;;;;;6.63;3.88;;;;;;;;;;5006097;28;20040;-78
2024/02/13 11:24:48;;;;;;;7.68;4.10;;;;;;;;;;5005823;28;20101;-77
2024/02/13 11:27:23;;;;;;;6.72;3.72;;;;;;;;;;5002795;28;20068;-77
2024/02/13 11:29:59;;;;;;;3.97;2.63;;;;;;;;;;5010569;28;20060;-77
2024/02/13 11:32:25;;;;;;;4.85;2.58;;;;;;;;;;5010192;28;20112;-77
2024/02/13 11:34:55;;;;;;;6.35;3.22;;;;;;;;;;5003860;28;20041;-77
2024/02/13 11:37:22;;;;;;;7.95;4.05;;;;;;;;;;5006956;28;20079;-77
2024/02/13 11:39:48;;;;;;;6.15;2.88;;;;;;;;;;5001776;28;20029;-77
2024/02/13 11:42:22;;;;;;;3.72;2.85;;;;;;;;;;5012651;28;20025;-77
2024/02/13 11:44:51;;;;;;;7.22;3.80;;;;;;;;;;5012358;28;20498;-78
2024/02/13 11:47:24;;;;;;;4.25;2.35;;;;;;;;;;5008078;28;20037;-78
2024/02/13 11:49:50;;;;;;;7.03;4.50;;;;;;;;;;5005574;28;20498;-78
2024/02/13 11:52:23;;;;;;;4.25;2.20;;;;;;;;;;5013022;28;20024;-77
2024/02/13 11:54:48;;;;;;;5.93;3.75;;;;;;;;;;5015915;28;20013;-77
2024/02/13 11:57:26;;;;;;;6.20;3.53;;;;;;;;;;5004659;28;20029;-77
2024/02/13 11:59:56;;;;;;;6.13;3.53;;;;;;;;;;5005131;28;20658;-77
2024/02/13 12:02:21;;;;;;;6.15;2.47;;;;;;;;;;5009937;28;20033;-77
2024/02/13 12:04:48;;;;;;;4.25;3.30;;;;;;;;;;5012985;28;20233;-76
2024/02/13 12:07:14;;;;;;;3.13;2.05;;;;;;;;;;5006272;28;20033;-77
2024/02/13 12:09:41;;;;;;;4.35;2.65;;;;;;;;;;5010668;28;20022;-77
2024/02/13 12:12:12;;;;;;;6.28;3.58;;;;;;;;;;5009778;28;20645;-77
2024/02/13 12:14:38;;;;;;;3.20;2.55;;;;;;;;;;5011460;28;20029;-77
2024/02/13 12:17:06;;;;;;;3.33;1.70;;;;;;;;;;5014242;28;20121;-77
2024/02/13 12:19:35;;;;;;;3.08;2.28;;;;;;;;;;5006524;28;20515;-77
2024/02/13 12:22:08;;;;;;;5.82;3.88;;;;;;;;;;5008176;28;20021;-77
2024/02/13 12:24:34;;;;;;;4.55;2.53;;;;;;;;;;5017709;28;20041;-77
2024/02/13 12:27:00;;;;;;;4.22;2.70;;;;;;;;;;5012280;28;20025;-77
2024/02/13 12:29:26;;;;;;;7.72;3.10;;;;;;;;;;5013038;28;20025;-77
2024/02/13 12:31:52;;;;;;;6.38;2.65;;;;;;;;;;5008972;28;20126;-77
2024/02/13 12:34:18;;;;;;;2.72;2.17;;;;;;;;;;5007478;28;20052;-77
2024/02/13 12:36:44;;;;;;;4.18;2.15;;;;;;;;;;5003695;28;20085;-77
2024/02/13 12:39:20;;;;;;;2.47;2.13;;;;;;;;;;5017020;28;20482;-76
2024/02/13 12:41:46;;;;;;;3.30;2.13;;;;;;;;;;5016739;28;20028;-78
2024/02/13 12:44:13;;;;;;;5.32;2.55;;;;;;;;;;5011230;28;20018;-78
2024/02/13 12:46:39;;;;;;;3.17;1.67;;;;;;;;;;5009921;28;20057;-78
2024/02/13 12:49:10;;;;;;;2.42;1.95;;;;;;;;;;5012738;28;20048;-77
2024/02/13 12:51:36;;;;;;;11.60;5.68;;;;;;;;;;5015919;28;20509;-78
2024/02/13 12:54:06;;;;;;;6.70;3.03;;;;;;;;;;5006094;28;20056;-78
2024/02/13 12:56:34;;;;;;;6.13;3.70;;;;;;;;;;5005560;28;20021;-78
2024/02/13 12:59:03;;;;;;;4.05;3.00;;;;;;;;;;5013947;28;20034;-78
2024/02/13 13:01:30;;;;;;;3.35;2.40;;;;;;;;;;5017622;28;20440;-78
2024/02/13 13:03:58;;;;;;;4.72;2.17;;;;;;;;;;5016726;28;20471;-78
2024/02/13 13:06:24;;;;;;;2.80;2.20;;;;;;;;;;5007230;28;20064;-78
2024/02/13 13:08:50;;;;;;;3.85;2.05;;;;;;;;;;5008122;28;20383;-78
2024/02/13 13:11:15;;;;;;;2.83;2.03;;;;;;;;;;5019690;28;20041;-78
2024/02/13 13:13:41;;;;;;;3.72;2.55;;;;;;;;;;5009665;28;20058;-78
2024/02/13 13:16:07;;;;;;;4.32;2.30;;;;;;;;;;5015174;28;20445;-77
2024/02/13 13:18:34;;;;;;;2.63;2.03;;;;;;;;;;5020021;28;20577;-77
2024/02/13 13:21:01;;;;;;;5.03;4.55;;;;;;;;;;5021080;28;20406;-78
2024/02/13 13:23:26;;;;;;;2.00;1.20;;;;;;;;;;5002752;28;20021;-78
2024/02/13 13:25:52;;;;;;;2.30;2.10;;;;;;;;;;5012908;28;20033;-77
2024/02/13 13:28:22;;;;;;;3.13;2.40;;;;;;;;;;5003882;28;20025;-77
2024/02/13 13:30:53;;;;;;;2.03;1.70;;;;;;;;;;5008692;28;20040;-76
2024/02/13 13:33:18;;;;;;;2.88;2.20;;;;;;;;;;5016586;28;20269;-77
2024/02/13 13:35:46;;;;;;;3.72;1.63;;;;;;;;;;5009088;28;20030;-77
2024/02/13 13:38:17;;;;;;;2.38;1.63;;;;;;;;;;5010391;28;20022;-77
2024/02/13 13:40:43;;;;;;;2.80;1.33;;;;;;;;;;5015299;28;20030;-77
2024/02/13 13:43:10;;;;;;;3.90;1.70;;;;;;;;;;5009539;28;20495;-77
2024/02/13 13:45:37;;;;;;;2.90;1.70;;;;;;;;;;5016091;28;20044;-77
2024/02/13 13:48:14;;;;;;;2.30;1.10;;;;;;;;;;5005782;28;20056;-77
2024/02/13 13:50:40;;;;;;;2.25;1.80;;;;;;;;;;5009893;28;20037;-77
2024/02/13 13:53:08;;;;;;;2.50;2.00;;;;;;;;;;5012555;28;20033;-77
2024/02/13 13:55:35;;;;;;;3.03;1.20;;;;;;;;;;5015693;28;20395;-77
2024/02/13 13:58:01;;;;;;;2.03;1.60;;;;;;;;;;5008367;28;20022;-77
2024/02/13 14:00:29;;;;;;;3.33;1.65;;;;;;;;;;5007886;28;20026;-77
2024/02/13 14:02:55;;;;;;;2.15;1.70;;;;;;;;;;5005876;28;20491;-76
2024/02/13 14:05:23;;;;;;;3.30;1.65;;;;;;;;;;5017003;28;20095;-77
2024/02/13 14:07:49;;;;;;;3.45;2.25;;;;;;;;;;5010870;28;20021;-77
2024/02/13 14:10:16;;;;;;;3.40;1.30;;;;;;;;;;5015298;28;20026;-77
2024/02/13 14:12:43;;;;;;;3.00;1.70;;;;;;;;;;5008913;28;20108;-77
2024/02/13 14:15:11;;;;;;;1.50;1.25;;;;;;;;;;5010740;28;21256;-77
2024/02/13 14:17:37;;;;;;;3.35;3.05;;;;;;;;;;5014587;28;20029;-76
2024/02/13 14:20:05;;;;;;;2.30;1.10;;;;;;;;;;5010396;28;20436;-77
2024/02/13 14:22:32;;;;;;;2.83;2.30;;;;;;;;;;5004089;28;20038;-77
2024/02/13 14:24:58;;;;;;;0.93;0.93;;;;;;;;;;5007498;28;20025;-77
2024/02/13 14:27:23;;;;;;;1.40;1.23;;;;;;;;;;5007936;28;20427;-77
2024/02/13 14:29:49;;;;;;;1.75;1.60;;;;;;;;;;5007886;28;20033;-77
2024/02/13 14:32:15;;;;;;;1.40;1.30;;;;;;;;;;5003567;28;21088;-78
2024/02/13 14:34:40;;;;;;;3.30;1.13;;;;;;;;;;5009028;28;20029;-77
2024/02/13 14:37:06;;;;;;;2.65;1.83;;;;;;;;;;5005416;28;20026;-77
2024/02/13 14:39:35;;;;;;;1.40;1.27;;;;;;;;;;5002922;28;20041;-77